sensor_id;sensor_type;location;lat;lon;timestamp;temperature;humidity
5459;DHT22;2752;49.992;8.422;2023-03-01T00:01:36;0.70;1.00
5459;DHT22;2752;49.992;8.422;2023-03-01T00:04:03;0.50;1.00
5459;DHT22;2752;49.992;8.422;2023-03-01T00:06:31;0.60;1.00
5459;DHT22;2752;49.992;8.422;2023-03-01T00:08:58;0.70;1.00
5459;DHT22;2752;49.992;8.422;2023-03-01T00:11:27;0.50;1.00
5459;DHT22;2752;49.992;8.422;2023-03-01T00:13:56;0.40;1.00
5459;DHT22;2752;49.992;8.422;2023-03-01T00:16:25;0.40;1.00
5459;DHT22;2752;49.992;8.422;2023-03-01T00:18:53;0.30;1.00
5459;DHT22;2752;49.992;8.422;2023-03-01T00:21:22;0.30;1.00
5459;DHT22;2752;49.992;8.422;2023-03-01T00:23:50;0.30;1.00
5459;DHT22;2752;49.992;8.422;2023-03-01T00:26:19;0.30;1.00
5459;DHT22;2752;49.992;8.422;2023-03-01T00:28:46;0.30;1.00
5459;DHT22;2752;49.992;8.422;2023-03-01T00:31:15;0.30;1.00
5459;DHT22;2752;49.992;8.422;2023-03-01T00:33:43;0.30;1.00
5459;DHT22;2752;49.992;8.422;2023-03-01T00:36:11;0.20;1.00
5459;DHT22;2752;49.992;8.422;2023-03-01T00:38:40;0.20;1.00
5459;DHT22;2752;49.992;8.422;2023-03-01T00:41:10;0.20;1.00
5459;DHT22;2752;49.992;8.422;2023-03-01T00:43:37;0.20;1.00
5459;DHT22;2752;49.992;8.422;2023-03-01T00:46:05;0.20;1.00
5459;DHT22;2752;49.992;8.422;2023-03-01T00:48:33;0.20;1.00
5459;DHT22;2752;49.992;8.422;2023-03-01T00:51:05;0.10;1.00
5459;DHT22;2752;49.992;8.422;2023-03-01T00:53:31;0.10;1.00
5459;DHT22;2752;49.992;8.422;2023-03-01T00:55:58;0.10;1.00
5459;DHT22;2752;49.992;8.422;2023-03-01T00:58:26;0.00;1.00
5459;DHT22;2752;49.992;8.422;2023-03-01T01:00:53;0.10;1.00
5459;DHT22;2752;49.992;8.422;2023-03-01T01:03:20;0.10;1.00
5459;DHT22;2752;49.992;8.422;2023-03-01T01:05:48;0.00;1.00
5459;DHT22;2752;49.992;8.422;2023-03-01T01:08:15;0.00;1.00
5459;DHT22;2752;49.992;8.422;2023-03-01T01:10:43;0.00;1.00
5459;DHT22;2752;49.992;8.422;2023-03-01T01:13:10;0.00;1.00
5459;DHT22;2752;49.992;8.422;2023-03-01T01:15:39;-0.10;1.00
5459;DHT22;2752;49.992;8.422;2023-03-01T01:18:06;-0.10;1.00
5459;DHT22;2752;49.992;8.422;2023-03-01T01:20:33;0.00;1.00
5459;DHT22;2752;49.992;8.422;2023-03-01T01:23:01;-0.10;1.00
5459;DHT22;2752;49.992;8.422;2023-03-01T01:25:27;0.00;1.00
5459;DHT22;2752;49.992;8.422;2023-03-01T01:27:54;-0.10;1.00
5459;DHT22;2752;49.992;8.422;2023-03-01T01:30:21;0.00;1.00
5459;DHT22;2752;49.992;8.422;2023-03-01T01:32:49;0.10;1.00
5459;DHT22;2752;49.992;8.422;2023-03-01T01:35:15;0.00;1.00
5459;DHT22;2752;49.992;8.422;2023-03-01T01:37:42;0.00;1.00
5459;DHT22;2752;49.992;8.422;2023-03-01T01:40:10;0.00;1.00
5459;DHT22;2752;49.992;8.422;2023-03-01T01:42:37;0.00;1.00
5459;DHT22;2752;49.992;8.422;2023-03-01T01:45:27;0.00;1.00
5459;DHT22;2752;49.992;8.422;2023-03-01T01:47:58;0.00;1.00
5459;DHT22;2752;49.992;8.422;2023-03-01T01:50:26;0.00;1.00
5459;DHT22;2752;49.992;8.422;2023-03-01T01:53:05;0.00;1.00
5459;DHT22;2752;49.992;8.422;2023-03-01T01:55:33;0.00;1.00
5459;DHT22;2752;49.992;8.422;2023-03-01T01:58:03;0.00;1.00
5459;DHT22;2752;49.992;8.422;2023-03-01T02:00:31;0.00;1.00
5459;DHT22;2752;49.992;8.422;2023-03-01T02:03:01;0.00;1.00
5459;DHT22;2752;49.992;8.422;2023-03-01T02:05:38;0.10;1.00
5459;DHT22;2752;49.992;8.422;2023-03-01T02:08:06;0.00;1.00
5459;DHT22;2752;49.992;8.422;2023-03-01T02:10:34;0.00;1.00
5459;DHT22;2752;49.992;8.422;2023-03-01T02:13:01;0.00;1.00
5459;DHT22;2752;49.992;8.422;2023-03-01T02:15:31;0.20;1.00
5459;DHT22;2752;49.992;8.422;2023-03-01T02:18:01;0.00;1.00
5459;DHT22;2752;49.992;8.422;2023-03-01T02:20:33;0.00;1.00
5459;DHT22;2752;49.992;8.422;2023-03-01T02:23:01;0.20;1.00
5459;DHT22;2752;49.992;8.422;2023-03-01T02:25:36;0.20;1.00
5459;DHT22;2752;49.992;8.422;2023-03-01T02:28:24;0.30;1.00
5459;DHT22;2752;49.992;8.422;2023-03-01T02:30:53;0.30;1.00
5459;DHT22;2752;49.992;8.422;2023-03-01T02:33:39;0.30;1.00
5459;DHT22;2752;49.992;8.422;2023-03-01T02:36:09;0.60;1.00
5459;DHT22;2752;49.992;8.422;2023-03-01T02:38:39;0.50;1.00
5459;DHT22;2752;49.992;8.422;2023-03-01T02:41:06;0.50;1.00
5459;DHT22;2752;49.992;8.422;2023-03-01T02:43:35;0.60;1.00
5459;DHT22;2752;49.992;8.422;2023-03-01T02:46:04;0.60;1.00
5459;DHT22;2752;49.992;8.422;2023-03-01T02:48:40;0.70;1.00
5459;DHT22;2752;49.992;8.422;2023-03-01T02:51:12;0.60;1.00
5459;DHT22;2752;49.992;8.422;2023-03-01T02:53:49;0.60;1.00
5459;DHT22;2752;49.992;8.422;2023-03-01T02:56:21;0.70;1.00
5459;DHT22;2752;49.992;8.422;2023-03-01T02:58:49;0.70;1.00
5459;DHT22;2752;49.992;8.422;2023-03-01T03:01:17;0.70;1.00
5459;DHT22;2752;49.992;8.422;2023-03-01T03:03:44;0.70;1.00
5459;DHT22;2752;49.992;8.422;2023-03-01T03:06:11;0.80;1.00
5459;DHT22;2752;49.992;8.422;2023-03-01T03:08:37;0.80;1.00
5459;DHT22;2752;49.992;8.422;2023-03-01T03:11:04;0.80;1.00
5459;DHT22;2752;49.992;8.422;2023-03-01T03:13:31;0.80;1.00
5459;DHT22;2752;49.992;8.422;2023-03-01T03:15:59;0.80;1.00
5459;DHT22;2752;49.992;8.422;2023-03-01T03:18:25;0.80;1.00
5459;DHT22;2752;49.992;8.422;2023-03-01T03:20:53;0.80;1.00
5459;DHT22;2752;49.992;8.422;2023-03-01T03:23:20;0.90;1.00
5459;DHT22;2752;49.992;8.422;2023-03-01T03:25:48;0.80;1.00
5459;DHT22;2752;49.992;8.422;2023-03-01T03:28:15;0.80;1.00
5459;DHT22;2752;49.992;8.422;2023-03-01T03:30:44;0.80;1.00
5459;DHT22;2752;49.992;8.422;2023-03-01T03:33:13;0.80;1.00
5459;DHT22;2752;49.992;8.422;2023-03-01T03:35:41;0.90;1.00
5459;DHT22;2752;49.992;8.422;2023-03-01T03:38:10;0.80;1.00
5459;DHT22;2752;49.992;8.422;2023-03-01T03:40:43;0.80;1.00
5459;DHT22;2752;49.992;8.422;2023-03-01T03:43:11;0.80;1.00
5459;DHT22;2752;49.992;8.422;2023-03-01T03:45:39;0.80;1.00
5459;DHT22;2752;49.992;8.422;2023-03-01T03:48:07;0.70;1.00
5459;DHT22;2752;49.992;8.422;2023-03-01T03:50:36;0.70;1.00
5459;DHT22;2752;49.992;8.422;2023-03-01T03:53:05;0.80;1.00
5459;DHT22;2752;49.992;8.422;2023-03-01T03:55:32;0.70;1.00
5459;DHT22;2752;49.992;8.422;2023-03-01T03:58:00;0.80;1.00
5459;DHT22;2752;49.992;8.422;2023-03-01T04:00:32;0.80;1.00
5459;DHT22;2752;49.992;8.422;2023-03-01T04:02:59;0.80;1.00
5459;DHT22;2752;49.992;8.422;2023-03-01T04:05:27;0.80;1.00
5459;DHT22;2752;49.992;8.422;2023-03-01T04:07:55;0.70;1.00
5459;DHT22;2752;49.992;8.422;2023-03-01T04:10:28;0.80;1.00
5459;DHT22;2752;49.992;8.422;2023-03-01T04:12:55;0.80;1.00
5459;DHT22;2752;49.992;8.422;2023-03-01T04:15:23;0.80;1.00
5459;DHT22;2752;49.992;8.422;2023-03-01T04:17:52;0.80;1.00
5459;DHT22;2752;49.992;8.422;2023-03-01T04:20:21;0.80;1.00
5459;DHT22;2752;49.992;8.422;2023-03-01T04:22:51;0.80;1.00
5459;DHT22;2752;49.992;8.422;2023-03-01T04:25:19;0.80;1.00
5459;DHT22;2752;49.992;8.422;2023-03-01T04:27:46;0.80;1.00
5459;DHT22;2752;49.992;8.422;2023-03-01T04:30:13;0.80;1.00
5459;DHT22;2752;49.992;8.422;2023-03-01T04:32:40;0.70;1.00
5459;DHT22;2752;49.992;8.422;2023-03-01T04:35:07;0.80;1.00
5459;DHT22;2752;49.992;8.422;2023-03-01T04:37:34;0.70;1.00
5459;DHT22;2752;49.992;8.422;2023-03-01T04:40:01;0.70;1.00
5459;DHT22;2752;49.992;8.422;2023-03-01T04:42:39;0.60;1.00
5459;DHT22;2752;49.992;8.422;2023-03-01T04:45:06;0.70;1.00
5459;DHT22;2752;49.992;8.422;2023-03-01T04:47:38;0.60;1.00
5459;DHT22;2752;49.992;8.422;2023-03-01T04:50:06;0.70;1.00
5459;DHT22;2752;49.992;8.422;2023-03-01T04:52:33;0.70;1.00
5459;DHT22;2752;49.992;8.422;2023-03-01T04:55:00;0.60;1.00
5459;DHT22;2752;49.992;8.422;2023-03-01T04:57:27;0.70;1.00
5459;DHT22;2752;49.992;8.422;2023-03-01T04:59:54;0.70;1.00
5459;DHT22;2752;49.992;8.422;2023-03-01T05:02:21;0.60;1.00
5459;DHT22;2752;49.992;8.422;2023-03-01T05:04:48;0.60;1.00
5459;DHT22;2752;49.992;8.422;2023-03-01T05:07:15;0.50;1.00
5459;DHT22;2752;49.992;8.422;2023-03-01T05:09:45;0.50;1.00
5459;DHT22;2752;49.992;8.422;2023-03-01T05:12:12;0.60;1.00
5459;DHT22;2752;49.992;8.422;2023-03-01T05:14:39;0.50;1.00
5459;DHT22;2752;49.992;8.422;2023-03-01T05:17:07;1.00;1.00
5459;DHT22;2752;49.992;8.422;2023-03-01T05:19:34;0.60;1.00
5459;DHT22;2752;49.992;8.422;2023-03-01T05:22:01;0.50;1.00
5459;DHT22;2752;49.992;8.422;2023-03-01T05:24:32;0.50;1.00
5459;DHT22;2752;49.992;8.422;2023-03-01T05:26:59;0.50;1.00
5459;DHT22;2752;49.992;8.422;2023-03-01T05:29:28;0.60;1.00
5459;DHT22;2752;49.992;8.422;2023-03-01T05:31:56;0.50;1.00
5459;DHT22;2752;49.992;8.422;2023-03-01T05:34:26;0.50;1.00
5459;DHT22;2752;49.992;8.422;2023-03-01T05:36:53;0.50;1.00
5459;DHT22;2752;49.992;8.422;2023-03-01T05:39:20;0.60;1.00
5459;DHT22;2752;49.992;8.422;2023-03-01T05:41:48;0.50;1.00
5459;DHT22;2752;49.992;8.422;2023-03-01T05:44:15;0.60;1.00
5459;DHT22;2752;49.992;8.422;2023-03-01T05:46:41;0.60;1.00
5459;DHT22;2752;49.992;8.422;2023-03-01T05:49:08;0.60;1.00
5459;DHT22;2752;49.992;8.422;2023-03-01T05:51:36;0.60;1.00
5459;DHT22;2752;49.992;8.422;2023-03-01T05:54:03;0.60;1.00
5459;DHT22;2752;49.992;8.422;2023-03-01T05:56:32;0.60;1.00
5459;DHT22;2752;49.992;8.422;2023-03-01T05:58:59;0.70;1.00
5459;DHT22;2752;49.992;8.422;2023-03-01T06:01:26;0.70;1.00
5459;DHT22;2752;49.992;8.422;2023-03-01T06:03:53;0.70;1.00
5459;DHT22;2752;49.992;8.422;2023-03-01T06:06:19;0.70;1.00
5459;DHT22;2752;49.992;8.422;2023-03-01T06:08:47;0.70;1.00
5459;DHT22;2752;49.992;8.422;2023-03-01T06:11:14;0.70;1.00
5459;DHT22;2752;49.992;8.422;2023-03-01T06:13:41;0.70;1.00
5459;DHT22;2752;49.992;8.422;2023-03-01T06:16:10;0.80;1.00
5459;DHT22;2752;49.992;8.422;2023-03-01T06:18:40;0.80;1.00
5459;DHT22;2752;49.992;8.422;2023-03-01T06:21:07;0.80;1.00
5459;DHT22;2752;49.992;8.422;2023-03-01T06:23:35;0.70;1.00
5459;DHT22;2752;49.992;8.422;2023-03-01T06:26:06;0.70;1.00
5459;DHT22;2752;49.992;8.422;2023-03-01T06:28:33;0.70;1.00
5459;DHT22;2752;49.992;8.422;2023-03-01T06:31:00;0.70;1.00
5459;DHT22;2752;49.992;8.422;2023-03-01T06:33:27;0.70;1.00
5459;DHT22;2752;49.992;8.422;2023-03-01T06:35:54;0.80;1.00
5459;DHT22;2752;49.992;8.422;2023-03-01T06:38:21;0.80;1.00
5459;DHT22;2752;49.992;8.422;2023-03-01T06:40:51;0.80;1.00
5459;DHT22;2752;49.992;8.422;2023-03-01T06:43:19;0.70;1.00
5459;DHT22;2752;49.992;8.422;2023-03-01T06:45:46;0.70;1.00
5459;DHT22;2752;49.992;8.422;2023-03-01T06:48:12;1.00;1.00
5459;DHT22;2752;49.992;8.422;2023-03-01T06:50:39;0.70;1.00
5459;DHT22;2752;49.992;8.422;2023-03-01T06:53:06;0.80;1.00
5459;DHT22;2752;49.992;8.422;2023-03-01T06:55:32;0.80;1.00
5459;DHT22;2752;49.992;8.422;2023-03-01T06:58:00;0.80;1.00
5459;DHT22;2752;49.992;8.422;2023-03-01T07:00:29;0.80;1.00
5459;DHT22;2752;49.992;8.422;2023-03-01T07:02:58;0.80;1.00
5459;DHT22;2752;49.992;8.422;2023-03-01T07:05:25;0.70;1.00
5459;DHT22;2752;49.992;8.422;2023-03-01T07:07:53;0.70;1.00
5459;DHT22;2752;49.992;8.422;2023-03-01T07:10:20;0.70;1.00
5459;DHT22;2752;49.992;8.422;2023-03-01T07:12:47;0.70;1.00
5459;DHT22;2752;49.992;8.422;2023-03-01T07:15:14;0.70;1.00
5459;DHT22;2752;49.992;8.422;2023-03-01T07:17:42;0.80;1.00
5459;DHT22;2752;49.992;8.422;2023-03-01T07:20:11;0.80;1.00
5459;DHT22;2752;49.992;8.422;2023-03-01T07:22:40;0.80;1.00
5459;DHT22;2752;49.992;8.422;2023-03-01T07:25:08;0.80;1.00
5459;DHT22;2752;49.992;8.422;2023-03-01T07:27:34;0.90;1.00
5459;DHT22;2752;49.992;8.422;2023-03-01T07:30:01;0.90;1.00
5459;DHT22;2752;49.992;8.422;2023-03-01T07:32:29;1.00;1.00
5459;DHT22;2752;49.992;8.422;2023-03-01T07:34:56;1.00;1.00
5459;DHT22;2752;49.992;8.422;2023-03-01T07:37:23;1.10;1.00
5459;DHT22;2752;49.992;8.422;2023-03-01T07:39:50;1.10;1.00
5459;DHT22;2752;49.992;8.422;2023-03-01T07:42:16;1.20;1.00
5459;DHT22;2752;49.992;8.422;2023-03-01T07:44:43;1.60;1.00
5459;DHT22;2752;49.992;8.422;2023-03-01T07:47:10;1.20;1.00
5459;DHT22;2752;49.992;8.422;2023-03-01T07:49:36;1.10;1.00
5459;DHT22;2752;49.992;8.422;2023-03-01T07:52:05;1.30;1.00
5459;DHT22;2752;49.992;8.422;2023-03-01T07:54:31;1.30;1.00
5459;DHT22;2752;49.992;8.422;2023-03-01T07:56:58;1.40;1.00
5459;DHT22;2752;49.992;8.422;2023-03-01T07:59:25;1.40;1.00
5459;DHT22;2752;49.992;8.422;2023-03-01T08:01:54;1.50;1.00
5459;DHT22;2752;49.992;8.422;2023-03-01T08:04:21;1.60;1.00
5459;DHT22;2752;49.992;8.422;2023-03-01T08:06:48;1.60;1.00
5459;DHT22;2752;49.992;8.422;2023-03-01T08:09:16;1.70;1.00
5459;DHT22;2752;49.992;8.422;2023-03-01T08:11:43;1.80;1.00
5459;DHT22;2752;49.992;8.422;2023-03-01T08:14:09;1.80;1.00
5459;DHT22;2752;49.992;8.422;2023-03-01T08:16:37;1.80;1.00
5459;DHT22;2752;49.992;8.422;2023-03-01T08:19:04;1.80;1.00
5459;DHT22;2752;49.992;8.422;2023-03-01T08:21:32;1.90;1.00
5459;DHT22;2752;49.992;8.422;2023-03-01T08:24:00;2.00;1.00
5459;DHT22;2752;49.992;8.422;2023-03-01T08:26:28;2.00;1.00
5459;DHT22;2752;49.992;8.422;2023-03-01T08:28:54;2.10;1.00
5459;DHT22;2752;49.992;8.422;2023-03-01T08:31:23;2.20;1.00
5459;DHT22;2752;49.992;8.422;2023-03-01T08:33:53;2.30;1.00
5459;DHT22;2752;49.992;8.422;2023-03-01T08:36:22;2.40;1.00
5459;DHT22;2752;49.992;8.422;2023-03-01T08:38:49;2.50;1.00
5459;DHT22;2752;49.992;8.422;2023-03-01T08:41:15;2.70;1.00
5459;DHT22;2752;49.992;8.422;2023-03-01T08:43:43;2.80;1.00
5459;DHT22;2752;49.992;8.422;2023-03-01T08:46:11;2.90;1.00
5459;DHT22;2752;49.992;8.422;2023-03-01T08:48:38;3.00;1.00
5459;DHT22;2752;49.992;8.422;2023-03-01T08:51:07;3.00;1.00
5459;DHT22;2752;49.992;8.422;2023-03-01T08:53:34;3.10;1.00
5459;DHT22;2752;49.992;8.422;2023-03-01T08:56:01;3.20;1.00
5459;DHT22;2752;49.992;8.422;2023-03-01T08:58:28;3.20;1.00
5459;DHT22;2752;49.992;8.422;2023-03-01T09:00:56;3.20;1.00
5459;DHT22;2752;49.992;8.422;2023-03-01T09:03:24;3.20;1.00
5459;DHT22;2752;49.992;8.422;2023-03-01T09:05:51;3.40;1.00
5459;DHT22;2752;49.992;8.422;2023-03-01T09:08:18;3.60;1.00
5459;DHT22;2752;49.992;8.422;2023-03-01T09:10:45;3.70;1.00
5459;DHT22;2752;49.992;8.422;2023-03-01T09:13:12;3.60;1.00
5459;DHT22;2752;49.992;8.422;2023-03-01T09:15:39;3.60;1.00
5459;DHT22;2752;49.992;8.422;2023-03-01T09:18:07;3.70;1.00
5459;DHT22;2752;49.992;8.422;2023-03-01T09:20:33;3.80;1.00
5459;DHT22;2752;49.992;8.422;2023-03-01T09:23:00;3.80;1.00
5459;DHT22;2752;49.992;8.422;2023-03-01T09:25:27;3.90;1.00
5459;DHT22;2752;49.992;8.422;2023-03-01T09:27:54;3.90;1.00
5459;DHT22;2752;49.992;8.422;2023-03-01T09:30:21;4.00;1.00
5459;DHT22;2752;49.992;8.422;2023-03-01T09:32:49;4.10;1.00
5459;DHT22;2752;49.992;8.422;2023-03-01T09:35:18;4.10;1.00
5459;DHT22;2752;49.992;8.422;2023-03-01T09:37:45;4.10;1.00
5459;DHT22;2752;49.992;8.422;2023-03-01T09:40:15;4.10;1.00
5459;DHT22;2752;49.992;8.422;2023-03-01T09:42:55;4.10;1.00
5459;DHT22;2752;49.992;8.422;2023-03-01T09:45:27;4.10;1.00
5459;DHT22;2752;49.992;8.422;2023-03-01T09:47:56;4.20;1.00
5459;DHT22;2752;49.992;8.422;2023-03-01T09:50:34;4.30;1.00
5459;DHT22;2752;49.992;8.422;2023-03-01T09:53:03;4.40;1.00
5459;DHT22;2752;49.992;8.422;2023-03-01T09:55:35;4.50;1.00
5459;DHT22;2752;49.992;8.422;2023-03-01T09:58:29;4.50;1.00
5459;DHT22;2752;49.992;8.422;2023-03-01T10:01:01;4.60;1.00
5459;DHT22;2752;49.992;8.422;2023-03-01T10:03:36;4.80;1.00
5459;DHT22;2752;49.992;8.422;2023-03-01T10:06:11;4.90;1.00
5459;DHT22;2752;49.992;8.422;2023-03-01T10:08:42;4.80;1.00
5459;DHT22;2752;49.992;8.422;2023-03-01T10:11:20;4.60;1.00
5459;DHT22;2752;49.992;8.422;2023-03-01T10:13:53;4.30;1.00
5459;DHT22;2752;49.992;8.422;2023-03-01T10:16:24;4.80;1.00
5459;DHT22;2752;49.992;8.422;2023-03-01T10:18:55;4.90;1.00
5459;DHT22;2752;49.992;8.422;2023-03-01T10:21:28;5.00;1.00
5459;DHT22;2752;49.992;8.422;2023-03-01T10:24:00;5.00;1.00
5459;DHT22;2752;49.992;8.422;2023-03-01T10:26:40;5.20;1.00
5459;DHT22;2752;49.992;8.422;2023-03-01T10:29:12;5.40;1.00
5459;DHT22;2752;49.992;8.422;2023-03-01T10:31:41;5.30;1.00
5459;DHT22;2752;49.992;8.422;2023-03-01T10:34:15;5.40;1.00
5459;DHT22;2752;49.992;8.422;2023-03-01T10:36:45;5.40;1.00
5459;DHT22;2752;49.992;8.422;2023-03-01T10:39:16;5.50;1.00
5459;DHT22;2752;49.992;8.422;2023-03-01T10:41:56;5.40;1.00
5459;DHT22;2752;49.992;8.422;2023-03-01T10:44:38;5.30;1.00
5459;DHT22;2752;49.992;8.422;2023-03-01T10:47:09;5.30;1.00
5459;DHT22;2752;49.992;8.422;2023-03-01T10:49:38;5.30;1.00
5459;DHT22;2752;49.992;8.422;2023-03-01T10:52:18;5.70;1.00
5459;DHT22;2752;49.992;8.422;2023-03-01T10:54:52;5.60;1.00
5459;DHT22;2752;49.992;8.422;2023-03-01T10:57:37;5.70;1.00
5459;DHT22;2752;49.992;8.422;2023-03-01T11:00:17;5.70;1.00
5459;DHT22;2752;49.992;8.422;2023-03-01T11:02:47;5.90;1.00
5459;DHT22;2752;49.992;8.422;2023-03-01T11:05:18;5.90;1.00
5459;DHT22;2752;49.992;8.422;2023-03-01T11:07:51;6.00;1.00
5459;DHT22;2752;49.992;8.422;2023-03-01T11:10:21;6.20;1.00
5459;DHT22;2752;49.992;8.422;2023-03-01T11:12:48;6.00;1.00
5459;DHT22;2752;49.992;8.422;2023-03-01T11:15:24;6.10;1.00
5459;DHT22;2752;49.992;8.422;2023-03-01T11:17:51;6.20;1.00
5459;DHT22;2752;49.992;8.422;2023-03-01T11:20:25;6.40;1.00
5459;DHT22;2752;49.992;8.422;2023-03-01T11:22:54;6.30;1.00
5459;DHT22;2752;49.992;8.422;2023-03-01T11:25:25;6.30;1.00
5459;DHT22;2752;49.992;8.422;2023-03-01T11:27:53;6.50;1.00
5459;DHT22;2752;49.992;8.422;2023-03-01T11:30:23;6.60;1.00
5459;DHT22;2752;49.992;8.422;2023-03-01T11:33:03;6.70;1.00
5459;DHT22;2752;49.992;8.422;2023-03-01T11:35:31;6.50;1.00
5459;DHT22;2752;49.992;8.422;2023-03-01T11:38:09;6.40;1.00
5459;DHT22;2752;49.992;8.422;2023-03-01T11:40:43;6.20;1.00
5459;DHT22;2752;49.992;8.422;2023-03-01T11:43:17;6.40;1.00
5459;DHT22;2752;49.992;8.422;2023-03-01T11:45:58;6.60;1.00
5459;DHT22;2752;49.992;8.422;2023-03-01T11:48:35;6.60;1.00
5459;DHT22;2752;49.992;8.422;2023-03-01T11:51:09;6.80;1.00
5459;DHT22;2752;49.992;8.422;2023-03-01T11:54:00;6.80;1.00
5459;DHT22;2752;49.992;8.422;2023-03-01T11:56:31;6.90;1.00
5459;DHT22;2752;49.992;8.422;2023-03-01T11:59:10;7.00;1.00
5459;DHT22;2752;49.992;8.422;2023-03-01T12:01:47;7.00;1.00
5459;DHT22;2752;49.992;8.422;2023-03-01T12:07:12;7.10;1.00
5459;DHT22;2752;49.992;8.422;2023-03-01T12:09:58;7.00;1.00
5459;DHT22;2752;49.992;8.422;2023-03-01T12:12:37;7.30;1.00
5459;DHT22;2752;49.992;8.422;2023-03-01T12:18:30;7.60;1.00
5459;DHT22;2752;49.992;8.422;2023-03-01T12:21:09;7.60;1.00
5459;DHT22;2752;49.992;8.422;2023-03-01T12:23:55;7.70;1.00
5459;DHT22;2752;49.992;8.422;2023-03-01T12:26:30;7.60;1.00
5459;DHT22;2752;49.992;8.422;2023-03-01T12:29:17;7.70;1.00
5459;DHT22;2752;49.992;8.422;2023-03-01T12:32:03;7.70;1.00
5459;DHT22;2752;49.992;8.422;2023-03-01T12:34:45;7.80;1.00
5459;DHT22;2752;49.992;8.422;2023-03-01T12:37:22;8.10;1.00
5459;DHT22;2752;49.992;8.422;2023-03-01T12:42:48;8.00;1.00
5459;DHT22;2752;49.992;8.422;2023-03-01T12:45:34;8.00;1.00
5459;DHT22;2752;49.992;8.422;2023-03-01T12:48:19;8.20;1.00
5459;DHT22;2752;49.992;8.422;2023-03-01T12:50:51;8.20;1.00
5459;DHT22;2752;49.992;8.422;2023-03-01T12:53:27;8.20;1.00
5459;DHT22;2752;49.992;8.422;2023-03-01T12:55:58;8.40;1.00
5459;DHT22;2752;49.992;8.422;2023-03-01T12:58:32;8.40;1.00
5459;DHT22;2752;49.992;8.422;2023-03-01T13:01:05;8.40;1.00
5459;DHT22;2752;49.992;8.422;2023-03-01T13:03:51;8.30;1.00
5459;DHT22;2752;49.992;8.422;2023-03-01T13:06:27;8.10;1.00
5459;DHT22;2752;49.992;8.422;2023-03-01T13:08:58;8.10;1.00
5459;DHT22;2752;49.992;8.422;2023-03-01T13:11:27;8.20;1.00
5459;DHT22;2752;49.992;8.422;2023-03-01T13:17:31;8.50;1.00
5459;DHT22;2752;49.992;8.422;2023-03-01T13:19:58;8.50;1.00
5459;DHT22;2752;49.992;8.422;2023-03-01T13:22:28;8.60;1.00
5459;DHT22;2752;49.992;8.422;2023-03-01T13:25:02;8.60;1.00
5459;DHT22;2752;49.992;8.422;2023-03-01T13:30:38;8.80;1.00
5459;DHT22;2752;49.992;8.422;2023-03-01T13:33:45;8.70;1.00
5459;DHT22;2752;49.992;8.422;2023-03-01T13:36:48;8.60;1.00
5459;DHT22;2752;49.992;8.422;2023-03-01T13:39:30;8.90;1.00
5459;DHT22;2752;49.992;8.422;2023-03-01T13:42:01;8.90;1.00
5459;DHT22;2752;49.992;8.422;2023-03-01T13:44:32;8.90;1.00
5459;DHT22;2752;49.992;8.422;2023-03-01T13:47:03;8.90;1.00
5459;DHT22;2752;49.992;8.422;2023-03-01T13:49:42;9.10;1.00
5459;DHT22;2752;49.992;8.422;2023-03-01T13:52:32;8.90;1.00
5459;DHT22;2752;49.992;8.422;2023-03-01T13:55:01;8.80;1.00
5459;DHT22;2752;49.992;8.422;2023-03-01T13:57:32;9.00;1.00
5459;DHT22;2752;49.992;8.422;2023-03-01T14:00:00;9.10;1.00
5459;DHT22;2752;49.992;8.422;2023-03-01T14:02:27;9.10;1.00
5459;DHT22;2752;49.992;8.422;2023-03-01T14:04:57;8.90;1.00
5459;DHT22;2752;49.992;8.422;2023-03-01T14:07:27;8.80;1.00
5459;DHT22;2752;49.992;8.422;2023-03-01T14:09:58;8.80;1.00
5459;DHT22;2752;49.992;8.422;2023-03-01T14:12:34;8.90;1.00
5459;DHT22;2752;49.992;8.422;2023-03-01T14:15:08;9.00;1.00
5459;DHT22;2752;49.992;8.422;2023-03-01T14:17:51;9.10;1.00
5459;DHT22;2752;49.992;8.422;2023-03-01T14:20:23;8.90;1.00
5459;DHT22;2752;49.992;8.422;2023-03-01T14:22:54;8.90;1.00
5459;DHT22;2752;49.992;8.422;2023-03-01T14:25:24;9.10;1.00
5459;DHT22;2752;49.992;8.422;2023-03-01T14:27:55;9.10;1.00
5459;DHT22;2752;49.992;8.422;2023-03-01T14:30:24;9.10;1.00
5459;DHT22;2752;49.992;8.422;2023-03-01T14:32:54;9.10;1.00
5459;DHT22;2752;49.992;8.422;2023-03-01T14:35:23;9.00;1.00
5459;DHT22;2752;49.992;8.422;2023-03-01T14:37:50;9.00;1.00
5459;DHT22;2752;49.992;8.422;2023-03-01T14:40:24;9.00;1.00
5459;DHT22;2752;49.992;8.422;2023-03-01T14:42:52;8.70;1.00
5459;DHT22;2752;49.992;8.422;2023-03-01T14:45:20;9.00;1.00
5459;DHT22;2752;49.992;8.422;2023-03-01T14:47:47;8.90;1.00
5459;DHT22;2752;49.992;8.422;2023-03-01T14:50:24;8.80;1.00
5459;DHT22;2752;49.992;8.422;2023-03-01T14:52:54;8.80;1.00
5459;DHT22;2752;49.992;8.422;2023-03-01T14:55:27;8.80;1.00
5459;DHT22;2752;49.992;8.422;2023-03-01T14:57:56;8.60;1.00
5459;DHT22;2752;49.992;8.422;2023-03-01T15:00:26;8.70;1.00
5459;DHT22;2752;49.992;8.422;2023-03-01T15:02:55;8.70;1.00
5459;DHT22;2752;49.992;8.422;2023-03-01T15:05:25;8.80;1.00
5459;DHT22;2752;49.992;8.422;2023-03-01T15:07:54;8.90;1.00
5459;DHT22;2752;49.992;8.422;2023-03-01T15:10:24;8.80;1.00
5459;DHT22;2752;49.992;8.422;2023-03-01T15:12:51;8.70;1.00
5459;DHT22;2752;49.992;8.422;2023-03-01T15:15:37;8.60;1.00
5459;DHT22;2752;49.992;8.422;2023-03-01T15:18:14;8.60;1.00
5459;DHT22;2752;49.992;8.422;2023-03-01T15:20:42;8.80;1.00
5459;DHT22;2752;49.992;8.422;2023-03-01T15:23:19;8.70;1.00
5459;DHT22;2752;49.992;8.422;2023-03-01T15:25:48;8.70;1.00
5459;DHT22;2752;49.992;8.422;2023-03-01T15:28:24;8.70;1.00
5459;DHT22;2752;49.992;8.422;2023-03-01T15:30:57;8.60;1.00
5459;DHT22;2752;49.992;8.422;2023-03-01T15:33:30;8.50;1.00
5459;DHT22;2752;49.992;8.422;2023-03-01T15:35:58;8.50;1.00
5459;DHT22;2752;49.992;8.422;2023-03-01T15:38:31;8.50;1.00
5459;DHT22;2752;49.992;8.422;2023-03-01T15:41:01;8.50;1.00
5459;DHT22;2752;49.992;8.422;2023-03-01T15:43:39;8.40;1.00
5459;DHT22;2752;49.992;8.422;2023-03-01T15:49:01;8.50;1.00
5459;DHT22;2752;49.992;8.422;2023-03-01T15:51:31;8.60;1.00
5459;DHT22;2752;49.992;8.422;2023-03-01T15:54:00;8.70;1.00
5459;DHT22;2752;49.992;8.422;2023-03-01T15:56:29;8.70;1.00
5459;DHT22;2752;49.992;8.422;2023-03-01T15:59:00;8.70;1.00
5459;DHT22;2752;49.992;8.422;2023-03-01T16:01:28;8.60;1.00
5459;DHT22;2752;49.992;8.422;2023-03-01T16:03:55;8.50;1.00
5459;DHT22;2752;49.992;8.422;2023-03-01T16:06:23;8.40;1.00
5459;DHT22;2752;49.992;8.422;2023-03-01T16:08:50;8.40;1.00
5459;DHT22;2752;49.992;8.422;2023-03-01T16:11:19;8.40;1.00
5459;DHT22;2752;49.992;8.422;2023-03-01T16:13:47;8.40;1.00
5459;DHT22;2752;49.992;8.422;2023-03-01T16:16:15;8.40;1.00
5459;DHT22;2752;49.992;8.422;2023-03-01T16:18:46;8.40;1.00
5459;DHT22;2752;49.992;8.422;2023-03-01T16:21:15;8.30;1.00
5459;DHT22;2752;49.992;8.422;2023-03-01T16:23:43;8.30;1.00
5459;DHT22;2752;49.992;8.422;2023-03-01T16:26:10;8.10;1.00
5459;DHT22;2752;49.992;8.422;2023-03-01T16:28:38;8.10;1.00
5459;DHT22;2752;49.992;8.422;2023-03-01T16:31:06;8.20;1.00
5459;DHT22;2752;49.992;8.422;2023-03-01T16:33:33;8.00;1.00
5459;DHT22;2752;49.992;8.422;2023-03-01T16:36:00;8.00;1.00
5459;DHT22;2752;49.992;8.422;2023-03-01T16:38:28;7.80;1.00
5459;DHT22;2752;49.992;8.422;2023-03-01T16:40:57;7.80;1.00
5459;DHT22;2752;49.992;8.422;2023-03-01T16:43:24;7.70;1.00
5459;DHT22;2752;49.992;8.422;2023-03-01T16:45:51;7.60;1.00
5459;DHT22;2752;49.992;8.422;2023-03-01T16:48:19;7.60;1.00
5459;DHT22;2752;49.992;8.422;2023-03-01T16:50:51;7.60;1.00
5459;DHT22;2752;49.992;8.422;2023-03-01T16:53:21;7.50;1.00
5459;DHT22;2752;49.992;8.422;2023-03-01T16:55:53;7.50;1.00
5459;DHT22;2752;49.992;8.422;2023-03-01T16:58:19;7.40;1.00
5459;DHT22;2752;49.992;8.422;2023-03-01T17:00:47;7.40;1.00
5459;DHT22;2752;49.992;8.422;2023-03-01T17:03:13;7.20;1.00
5459;DHT22;2752;49.992;8.422;2023-03-01T17:05:43;7.20;1.00
5459;DHT22;2752;49.992;8.422;2023-03-01T17:08:10;7.10;1.00
5459;DHT22;2752;49.992;8.422;2023-03-01T17:10:37;7.10;1.00
5459;DHT22;2752;49.992;8.422;2023-03-01T17:13:03;7.00;1.00